Time;durP1;ratioP1;P1;durP2;ratioP2;P2;SDS_P1;SDS_P2;PMS_P1;PMS_P2;Temp;Humidity;BMP_temperature;BMP_pressure;BME280_temperature;BME280_humidity;BME280_pressure;Samples;Min_cycle;Max_cycle;Signal;HPM_P1;HPM_P2
2022/11/05 00:11:14;;;;;;;8.03;1.30;;;;;;;-145.18;100.00;46676.03;5053109;28;20253;-70
2022/11/05 00:19:07;;;;;;;7.43;1.50;;;;;;;-145.18;100.00;46681.88;5053724;28;20630;-70
2022/11/05 00:27:03;;;;;;;10.90;2.90;;;;;;;-145.18;100.00;46677.97;5053256;28;20543;-70
2022/11/05 00:29:28;;;;;;;7.77;2.50;;;;;;;-145.18;100.00;46676.03;5052931;28;20266;-70
2022/11/05 00:31:54;;;;;;;7.90;2.47;;;;;;;-145.18;100.00;46677.97;5052821;28;20635;-70
2022/11/05 00:34:19;;;;;;;8.83;2.43;;;;;;;-145.18;100.00;46674.06;5053040;28;20037;-70
2022/11/05 00:36:44;;;;;;;6.63;2.60;;;;;;;-145.18;100.00;46674.06;5052497;28;20037;-70
2022/11/05 00:39:10;;;;;;;6.67;2.00;;;;;;;-145.18;100.00;46679.94;5052855;28;20033;-70
2022/11/05 00:41:35;;;;;;;6.53;2.57;;;;;;;-145.18;100.00;46676.03;5052460;28;20450;-70
2022/11/05 00:46:44;;;;;;;7.77;3.53;;;;;;;-145.18;100.00;46676.03;5052730;28;20048;-71
2022/11/05 00:49:28;;;;;;;10.77;4.03;;;;;;;-145.18;100.00;46676.03;5052637;28;20266;-70
2022/11/05 00:52:54;;;;;;;4.53;2.50;;;;;;;-145.18;100.00;46677.97;5052481;28;20124;-70
2022/11/05 00:54:39;;;;;;;9.33;4.03;;;;;;;-145.18;100.00;46676.03;5052448;28;20308;-70
2022/11/05 00:57:04;;;;;;;7.33;3.43;;;;;;;-145.18;100.00;46674.06;5052459;28;20266;-70
2022/11/05 00:59:29;;;;;;;8.27;3.67;;;;;;;-145.18;100.00;46676.03;5052584;28;20094;-70
2022/11/05 01:01:55;;;;;;;9.97;3.90;;;;;;;-145.18;100.00;46674.06;5052073;28;20126;-70
2022/11/05 01:04:20;;;;;;;10.70;3.70;;;;;;;-145.18;100.00;46676.03;5051496;28;20141;-70
2022/11/05 01:06:46;;;;;;;15.50;4.33;;;;;;;-145.18;100.00;46670.16;5052070;28;20531;-70
2022/11/05 01:09:11;;;;;;;11.73;4.53;;;;;;;-145.18;100.00;46676.03;5052527;28;20134;-70
2022/11/05 01:11:36;;;;;;;9.40;4.30;;;;;;;-145.18;100.00;46677.97;5047547;28;20133;-70
2022/11/05 01:14:08;;;;;;;11.07;5.00;;;;;;;-145.18;100.00;46677.97;5052332;28;20171;-70
2022/11/05 01:16:34;;;;;;;10.23;4.37;;;;;;;-145.18;100.00;46670.16;5052103;28;20029;-70
2022/11/05 01:19:00;;;;;;;10.23;4.40;;;;;;;-145.18;100.00;46666.25;5034245;28;20762;-71
2022/11/05 01:21:26;;;;;;;7.07;4.20;;;;;;;-145.18;100.00;46672.13;5051960;28;20266;-70
2022/11/05 01:23:52;;;;;;;14.83;4.70;;;;;;;-145.18;100.00;46670.16;5052191;28;20277;-70
2022/11/05 01:26:17;;;;;;;5.73;3.90;;;;;;;-145.18;100.00;46674.06;5051945;28;20059;-70
2022/11/05 01:28:43;;;;;;;9.07;3.97;;;;;;;-145.18;100.00;46679.94;5051757;28;20773;-70
2022/11/05 01:31:08;;;;;;;10.53;4.27;;;;;;;-145.18;100.00;46670.16;5052131;28;20512;-70
2022/11/05 01:33:34;;;;;;;11.37;4.63;;;;;;;-145.18;100.00;46666.25;5051651;28;20098;-69
2022/11/05 01:35:59;;;;;;;11.57;4.93;;;;;;;-145.18;100.00;46672.13;5034187;28;20041;-69
2022/11/05 01:38:24;;;;;;;11.13;4.53;;;;;;;-145.18;100.00;46672.13;5051866;28;20516;-69
2022/11/05 01:40:50;;;;;;;6.93;4.30;;;;;;;-145.18;100.00;46674.06;5051613;28;20734;-69
2022/11/05 01:43:18;;;;;;;11.13;4.97;;;;;;;-145.18;100.00;46672.13;5034081;28;20108;-69
2022/11/05 01:45:48;;;;;;;6.67;4.70;;;;;;;-145.18;100.00;46670.16;5051181;28;20033;-70
2022/11/05 01:48:21;;;;;;;5.83;4.00;;;;;;;-145.18;100.00;46670.16;5051673;28;20266;-70
2022/11/05 01:50:50;;;;;;;9.00;4.33;;;;;;;-145.18;100.00;46670.16;5051406;28;20316;-70
2022/11/05 01:53:35;;;;;;;8.90;4.20;;;;;;;-145.18;100.00;46666.25;5051757;28;20788;-70
2022/11/05 01:56:07;;;;;;;7.95;4.00;;;;;;;-145.18;100.00;46670.16;5051368;28;20270;-70
2022/11/05 01:58:57;;;;;;;7.10;4.17;;;;;;;-145.18;100.00;46670.16;5051397;28;20033;-70
2022/11/05 02:01:23;;;;;;;9.33;4.00;;;;;;;-145.18;100.00;46670.16;5043769;28;20262;-70
2022/11/05 02:03:53;;;;;;;8.73;3.90;;;;;;;-145.18;100.00;46666.25;5051106;28;20824;-69
2022/11/05 02:06:20;;;;;;;8.30;3.67;;;;;;;-145.18;100.00;46668.22;5051148;28;20029;-70
2022/11/05 02:09:14;;;;;;;6.90;3.97;;;;;;;-145.18;100.00;46672.13;5050768;28;20304;-70
2022/11/05 02:11:39;;;;;;;6.20;3.30;;;;;;;-145.18;100.00;46666.25;5049533;28;20272;-70
2022/11/05 02:14:04;;;;;;;9.90;3.80;;;;;;;-145.18;100.00;46674.06;5051188;28;20293;-70
2022/11/05 02:16:42;;;;;;;5.40;4.07;;;;;;;-145.18;100.00;46670.16;5050974;28;20029;-70
2022/11/05 02:19:30;;;;;;;10.40;4.30;;;;;;;-145.18;100.00;46670.16;5051099;28;20095;-70
2022/11/05 02:22:07;;;;;;;10.67;3.80;;;;;;;-145.18;100.00;46666.25;4999657;28;20351;-70
2022/11/05 02:24:44;;;;;;;10.90;4.27;;;;;;;-145.18;100.00;46674.06;5050944;28;20262;-70
2022/11/05 02:27:36;;;;;;;8.23;3.73;;;;;;;-145.18;100.00;46668.22;5050748;28;20269;-70
2022/11/05 02:30:07;;;;;;;9.37;3.80;;;;;;;-145.18;100.00;46668.22;5043850;28;20762;-70
2022/11/05 02:32:55;;;;;;;11.03;4.43;;;;;;;-145.18;100.00;46664.31;5049015;28;20376;-70
2022/11/05 02:35:56;;;;;;;9.93;3.77;;;;;;;-145.18;100.00;46670.16;5050751;28;20254;-69
2022/11/05 02:38:47;;;;;;;9.23;5.03;;;;;;;-145.18;100.00;46672.13;5049495;28;20269;-69
2022/11/05 02:41:31;;;;;;;12.40;4.17;;;;;;;-145.18;100.00;46668.22;5050465;28;20341;-70
2022/11/05 02:44:26;;;;;;;10.20;4.07;;;;;;;-145.18;100.00;46676.03;5050483;28;20330;-70
2022/11/05 02:46:54;;;;;;;12.50;4.57;;;;;;;-145.18;100.00;46670.16;5050062;28;20767;-69
2022/11/05 02:49:33;;;;;;;9.80;4.40;;;;;;;-145.18;100.00;46668.22;5050660;28;20258;-69
2022/11/05 02:52:04;;;;;;;8.77;4.43;;;;;;;-145.18;100.00;46674.06;5050190;28;20285;-69
2022/11/05 02:54:55;;;;;;;12.90;4.67;;;;;;;-145.18;100.00;46670.16;5050569;28;20286;-69
2022/11/05 02:57:21;;;;;;;10.67;4.97;;;;;;;-145.18;100.00;46672.13;5049657;28;20353;-70
2022/11/05 02:59:46;;;;;;;9.17;4.67;;;;;;;-145.18;100.00;46672.13;5050157;28;20298;-69
2022/11/05 03:02:12;;;;;;;10.77;4.57;;;;;;;-145.18;100.00;46666.25;5316092;22;20340;-71
2022/11/05 03:04:37;;;;;;;10.67;5.30;;;;;;;-145.18;100.00;46672.13;5041210;28;20476;-71
2022/11/05 03:07:57;;;;;;;17.93;5.30;;;;;;;-145.18;100.00;46674.06;5029820;28;20041;-71
2022/11/05 03:10:34;;;;;;;11.40;4.97;;;;;;;-145.18;100.00;46672.13;4969062;28;20162;-71
2022/11/05 03:13:12;;;;;;;13.73;4.57;;;;;;;-145.18;100.00;46674.06;5021927;28;20663;-71
2022/11/05 03:16:04;;;;;;;11.03;4.93;;;;;;;-145.18;100.00;46677.97;5030339;28;20271;-71
2022/11/05 03:19:01;;;;;;;13.50;4.63;;;;;;;-145.18;100.00;46674.06;5030015;28;20298;-71
2022/11/05 03:21:45;;;;;;;11.03;4.60;;;;;;;-145.18;100.00;46674.06;5029926;28;20298;-70
2022/11/05 03:24:16;;;;;;;8.40;5.00;;;;;;;-145.18;100.00;46672.13;5029749;28;20259;-70
2022/11/05 03:27:10;;;;;;;10.67;4.60;;;;;;;-145.18;100.00;46670.16;5029612;28;20349;-70
2022/11/05 03:29:41;;;;;;;8.63;4.63;;;;;;;-145.18;100.00;46670.16;5030123;28;20401;-70
2022/11/05 03:32:09;;;;;;;10.60;5.00;;;;;;;-145.18;100.00;46674.06;5027977;28;20293;-71
2022/11/05 03:34:41;;;;;;;12.70;5.30;;;;;;;-145.18;100.00;46676.03;5029788;28;20294;-70
2022/11/05 03:37:09;;;;;;;14.57;5.43;;;;;;;-145.18;100.00;46668.22;5029324;28;20270;-70
2022/11/05 03:39:49;;;;;;;12.73;6.17;;;;;;;-145.18;100.00;46672.13;5030035;28;20300;-71
2022/11/05 03:42:19;;;;;;;14.17;5.20;;;;;;;-145.18;100.00;46676.03;5029824;28;20263;-71
2022/11/05 03:44:50;;;;;;;7.20;4.87;;;;;;;-145.18;100.00;46676.03;5029962;28;20270;-70
2022/11/05 03:47:31;;;;;;;11.47;5.13;;;;;;;-145.18;100.00;46674.06;5029523;28;20254;-70
2022/11/05 03:50:06;;;;;;;13.13;4.77;;;;;;;-145.18;100.00;46674.06;5029657;28;20259;-71
2022/11/05 03:52:43;;;;;;;10.13;4.85;;;;;;;-145.18;100.00;46674.06;5029569;28;20765;-71
2022/11/05 03:55:09;;;;;;;13.20;4.97;;;;;;;-145.18;100.00;46674.06;5028521;28;20779;-71
2022/11/05 03:57:40;;;;;;;15.43;5.87;;;;;;;-145.18;100.00;46670.16;5029692;28;20273;-70
2022/11/05 04:00:08;;;;;;;14.40;5.23;;;;;;;-145.18;100.00;46674.06;5029431;28;20306;-71
2022/11/05 04:02:33;;;;;;;8.13;4.60;;;;;;;-145.18;100.00;46672.13;5022365;28;20288;-71
2022/11/05 04:04:58;;;;;;;11.97;5.40;;;;;;;-145.18;100.00;46670.16;5009709;28;20283;-71
2022/11/05 04:18:20;;;;;;;8.67;5.53;;;;;;;-145.18;100.00;46668.22;5010099;28;20258;-70
2022/11/05 04:26:13;;;;;;;15.27;5.50;;;;;;;-145.18;100.00;46672.13;5013683;28;20320;-70
2022/11/05 04:31:22;;;;;;;8.53;5.63;;;;;;;-145.18;100.00;46670.16;5029297;28;20036;-71
2022/11/05 04:33:48;;;;;;;9.70;5.27;;;;;;;-145.18;100.00;46664.31;5029181;28;20290;-71
2022/11/05 04:36:13;;;;;;;10.00;5.37;;;;;;;-145.18;100.00;46668.22;5028973;28;20046;-71
2022/11/05 04:38:38;;;;;;;9.20;5.27;;;;;;;-145.18;100.00;46668.22;5030742;28;20438;-70
2022/11/05 04:41:16;;;;;;;14.67;5.87;;;;;;;-145.18;100.00;46666.25;5032372;28;20034;-71
2022/11/05 04:43:41;;;;;;;14.07;6.23;;;;;;;-145.18;100.00;46668.22;5032754;28;20018;-70
2022/11/05 04:46:07;;;;;;;12.30;5.30;;;;;;;-145.18;100.00;46672.13;5032772;28;20325;-71
2022/11/05 04:48:33;;;;;;;8.73;4.87;;;;;;;-145.18;100.00;46668.22;5032446;28;20909;-70
2022/11/05 04:50:58;;;;;;;11.00;5.30;;;;;;;-145.18;100.00;46668.22;5032489;28;20029;-70
2022/11/05 04:53:24;;;;;;;12.90;6.23;;;;;;;-145.18;100.00;46668.22;5032425;28;20489;-71
2022/11/05 04:55:49;;;;;;;10.10;5.33;;;;;;;-145.18;100.00;46668.22;5032829;28;20416;-71
2022/11/05 04:58:14;;;;;;;11.00;5.93;;;;;;;-145.18;100.00;46664.31;5032138;28;20079;-70
2022/11/05 05:00:40;;;;;;;13.63;6.40;;;;;;;-145.18;100.00;46668.22;5014910;28;20108;-71
2022/11/05 05:03:05;;;;;;;13.43;6.63;;;;;;;-145.18;100.00;46664.31;5039498;28;20120;-71
2022/11/05 05:05:31;;;;;;;12.73;6.50;;;;;;;-145.18;100.00;46668.22;5057824;28;20040;-71
2022/11/05 05:08:03;;;;;;;21.70;6.60;;;;;;;-145.18;100.00;46664.31;5062023;28;20024;-71
2022/11/05 05:10:29;;;;;;;11.80;6.80;;;;;;;-145.18;100.00;46668.22;5031470;28;20068;-71
2022/11/05 05:12:54;;;;;;;12.73;7.03;;;;;;;-145.18;100.00;46670.16;5053316;28;20322;-71
2022/11/05 05:15:20;;;;;;;13.00;6.67;;;;;;;-145.18;100.00;46670.16;5035172;28;20067;-71
2022/11/05 05:17:51;;;;;;;12.77;6.93;;;;;;;-145.18;100.00;46668.22;5027514;28;20120;-71
2022/11/05 05:23:02;;;;;;;15.03;7.03;;;;;;;-145.18;100.00;46668.22;5051623;28;20262;-71
2022/11/05 05:25:28;;;;;;;15.20;7.30;;;;;;;-145.18;100.00;46668.22;5051717;28;20274;-71
2022/11/05 05:27:56;;;;;;;15.33;6.90;;;;;;;-145.18;100.00;46670.16;5051069;28;20041;-71
2022/11/05 05:30:22;;;;;;;10.33;7.20;;;;;;;-145.18;100.00;46666.25;5056914;28;20029;-71
2022/11/05 05:32:47;;;;;;;12.43;7.50;;;;;;;-145.18;100.00;46664.31;5056593;28;20315;-71
2022/11/05 05:35:13;;;;;;;11.90;8.00;;;;;;;-145.18;100.00;46664.31;5056586;28;20553;-71
2022/11/05 05:37:38;;;;;;;12.70;7.80;;;;;;;-145.18;100.00;46666.25;5064856;28;20034;-71
2022/11/05 05:40:04;;;;;;;15.67;8.73;;;;;;;-145.18;100.00;46664.31;5051298;28;20067;-71
2022/11/05 05:42:29;;;;;;;16.60;8.40;;;;;;;-145.18;100.00;46660.41;5051303;28;20025;-71
2022/11/05 05:44:55;;;;;;;18.40;9.37;;;;;;;-145.18;100.00;46670.16;5051196;28;20044;-71
2022/11/05 05:47:20;;;;;;;16.50;9.80;;;;;;;-145.18;100.00;46666.25;5051012;28;20542;-71
2022/11/05 05:49:45;;;;;;;13.20;9.13;;;;;;;-145.18;100.00;46664.31;5050532;28;20472;-71
2022/11/05 05:52:11;;;;;;;14.23;9.33;;;;;;;-145.18;100.00;46668.22;5033155;28;20037;-71
2022/11/05 05:54:36;;;;;;;13.37;10.07;;;;;;;-145.18;100.00;46674.06;5053466;28;20501;-71
2022/11/05 05:57:02;;;;;;;17.07;9.37;;;;;;;-145.18;100.00;46668.22;5050874;28;20044;-71
2022/11/05 05:59:27;;;;;;;17.37;9.37;;;;;;;-145.18;100.00;46674.06;5051106;28;20116;-70
2022/11/05 06:01:53;;;;;;;15.40;9.57;;;;;;;-145.18;100.00;46668.22;5050734;28;20053;-70
2022/11/05 06:04:18;;;;;;;13.47;9.53;;;;;;;-145.18;100.00;46660.41;5051194;28;20516;-71
2022/11/05 06:06:45;;;;;;;19.80;9.97;;;;;;;-145.18;100.00;46662.34;5050987;28;20148;-71
2022/11/05 06:09:12;;;;;;;22.23;10.40;;;;;;;-145.18;100.00;46664.31;5050921;28;20037;-70
2022/11/05 06:11:37;;;;;;;20.67;12.53;;;;;;;-145.18;100.00;46668.22;5051067;28;20254;-71
2022/11/05 06:14:02;;;;;;;24.97;11.60;;;;;;;-145.18;100.00;46670.16;5050602;28;20536;-71
2022/11/05 06:16:28;;;;;;;23.57;13.50;;;;;;;-145.18;100.00;46672.13;5050932;28;20087;-70
2022/11/05 06:18:53;;;;;;;21.60;12.93;;;;;;;-145.18;100.00;46670.16;5050151;28;20040;-70
2022/11/05 06:21:19;;;;;;;23.60;11.70;;;;;;;-145.18;100.00;46668.22;5050941;28;20037;-70
2022/11/05 06:23:45;;;;;;;20.67;11.10;;;;;;;-145.18;100.00;46666.25;5046261;28;20029;-70
2022/11/05 06:26:15;;;;;;;21.87;11.87;;;;;;;-145.18;100.00;46670.16;5047242;28;20029;-70
2022/11/05 06:28:42;;;;;;;17.33;10.00;;;;;;;-145.18;100.00;46674.06;5049101;28;20274;-70
2022/11/05 06:31:08;;;;;;;16.43;10.60;;;;;;;-145.18;100.00;46672.13;5048576;28;20270;-70
2022/11/05 06:33:34;;;;;;;16.97;10.53;;;;;;;-145.18;100.00;46666.25;5043122;28;20289;-70
2022/11/05 06:36:01;;;;;;;17.00;9.87;;;;;;;-145.18;100.00;46674.06;5049281;28;20781;-70
2022/11/05 06:38:28;;;;;;;25.83;9.57;;;;;;;-145.18;100.00;46674.06;5050005;28;20044;-70
2022/11/05 06:40:56;;;;;;;23.13;11.70;;;;;;;-145.18;100.00;46672.13;5050157;28;20674;-70
2022/11/05 06:43:21;;;;;;;18.03;10.97;;;;;;;-145.18;100.00;46676.03;5050396;28;20270;-70
2022/11/05 06:45:47;;;;;;;23.43;10.23;;;;;;;-145.18;100.00;46670.16;5049936;28;20749;-70
2022/11/05 06:48:12;;;;;;;19.13;9.80;;;;;;;-145.18;100.00;46676.03;5050198;28;20397;-70
2022/11/05 06:50:37;;;;;;;18.17;9.93;;;;;;;-145.18;100.00;46672.13;5050615;28;20039;-70
2022/11/05 06:53:03;;;;;;;25.93;10.17;;;;;;;-145.18;100.00;46670.16;5049694;28;20152;-70
2022/11/05 06:55:29;;;;;;;25.53;10.00;;;;;;;-145.18;100.00;46672.13;5050363;28;20044;-70
2022/11/05 06:57:56;;;;;;;17.67;9.73;;;;;;;-145.18;100.00;46670.16;5050038;28;20108;-70
2022/11/05 07:00:22;;;;;;;23.53;10.90;;;;;;;-145.18;100.00;46672.13;5032225;28;20280;-70
2022/11/05 07:02:47;;;;;;;22.10;10.30;;;;;;;-145.18;100.00;46679.94;5049327;28;20322;-70
2022/11/05 07:05:14;;;;;;;19.27;9.90;;;;;;;-145.18;100.00;46670.16;5050280;28;20320;-70
2022/11/05 07:07:41;;;;;;;16.63;10.00;;;;;;;-145.18;100.00;46676.03;5050213;28;20024;-70
2022/11/05 07:10:13;;;;;;;20.47;10.23;;;;;;;-145.18;100.00;46674.06;5050103;28;20273;-68
2022/11/05 07:12:38;;;;;;;20.43;8.90;;;;;;;-145.18;100.00;46670.16;5048423;28;20264;-70
2022/11/05 07:15:04;;;;;;;18.50;10.43;;;;;;;-145.18;100.00;46679.94;5049514;28;20270;-70
2022/11/05 07:17:30;;;;;;;17.97;9.77;;;;;;;-145.18;100.00;46672.13;5049733;28;20041;-69
2022/11/05 07:19:56;;;;;;;26.33;10.37;;;;;;;-145.18;100.00;46676.03;5049263;28;20277;-69
2022/11/05 07:22:21;;;;;;;22.77;10.23;;;;;;;-145.18;100.00;46674.06;5049149;28;20336;-70
2022/11/05 07:24:48;;;;;;;18.70;9.77;;;;;;;-145.18;100.00;46676.03;5031592;28;20045;-69
2022/11/05 07:27:13;;;;;;;18.77;10.43;;;;;;;-145.18;100.00;46668.22;5049510;28;20120;-70
2022/11/05 07:29:39;;;;;;;23.83;11.20;;;;;;;-145.18;100.00;46668.22;5048972;28;20362;-69
2022/11/05 07:32:04;;;;;;;22.53;11.57;;;;;;;-145.18;100.00;46670.16;5047796;28;20041;-69
2022/11/05 07:34:30;;;;;;;22.20;12.47;;;;;;;-145.18;100.00;46670.16;5049026;28;20036;-69
2022/11/05 07:36:55;;;;;;;23.03;13.27;;;;;;;-145.18;100.00;46670.16;5049175;28;20095;-69
2022/11/05 07:39:20;;;;;;;21.33;11.20;;;;;;;-145.18;100.00;46676.03;5049751;28;20072;-70
2022/11/05 07:41:46;;;;;;;25.77;13.07;;;;;;;-145.18;100.00;46670.16;5049310;28;20029;-70
2022/11/05 07:44:13;;;;;;;24.27;12.20;;;;;;;-145.18;100.00;46677.97;5049241;28;20047;-70
2022/11/05 07:46:39;;;;;;;26.93;12.10;;;;;;;-145.18;100.00;46668.22;5049643;28;20105;-70
2022/11/05 07:49:05;;;;;;;21.07;12.50;;;;;;;-145.18;100.00;46668.22;5031393;28;20278;-70
2022/11/05 07:51:30;;;;;;;25.23;13.07;;;;;;;-145.18;100.00;46674.06;5049451;28;20265;-70
2022/11/05 07:53:55;;;;;;;25.03;12.67;;;;;;;-145.18;100.00;46670.16;5049163;28;20072;-70
2022/11/05 07:56:21;;;;;;;28.77;12.97;;;;;;;-145.18;100.00;46674.06;5049638;28;20486;-70
2022/11/05 07:58:46;;;;;;;25.97;13.00;;;;;;;-145.18;100.00;46672.13;5049287;28;20029;-70
2022/11/05 08:01:11;;;;;;;25.37;14.33;;;;;;;-145.18;100.00;46670.16;5049246;28;20080;-70
2022/11/05 08:03:37;;;;;;;23.23;13.10;;;;;;;-145.18;100.00;46679.94;5049155;28;20045;-71
2022/11/05 08:06:02;;;;;;;27.27;13.43;;;;;;;-145.18;100.00;46666.25;5049173;28;20095;-70
2022/11/05 08:08:27;;;;;;;20.83;12.97;;;;;;;-145.18;100.00;46676.03;5049251;28;20044;-71
2022/11/05 08:10:53;;;;;;;21.93;12.50;;;;;;;-145.18;100.00;46668.22;5049088;28;20037;-71
2022/11/05 08:13:18;;;;;;;27.57;13.97;;;;;;;-145.18;100.00;46674.06;5051875;28;20052;-71
2022/11/05 08:15:44;;;;;;;26.70;12.77;;;;;;;-145.18;100.00;46676.03;5035118;28;20036;-71
2022/11/05 08:18:12;;;;;;;22.80;12.97;;;;;;;-145.18;100.00;46674.06;5052584;28;20067;-71
2022/11/05 08:20:39;;;;;;;21.57;12.60;;;;;;;-145.18;100.00;46666.25;5053079;28;20562;-71
2022/11/05 08:23:04;;;;;;;23.10;12.40;;;;;;;-145.18;100.00;46672.13;5052187;28;20285;-71
2022/11/05 08:25:30;;;;;;;22.10;12.03;;;;;;;-145.18;100.00;46666.25;5053133;28;20328;-71
2022/11/05 08:28:04;;;;;;;20.37;12.03;;;;;;;-145.18;100.00;46677.97;5052649;28;20037;-71
2022/11/05 08:30:31;;;;;;;23.30;12.60;;;;;;;-145.18;100.00;46674.06;5051795;28;20028;-71
2022/11/05 08:32:59;;;;;;;22.53;12.47;;;;;;;-145.18;100.00;46674.06;5052281;28;20282;-71
2022/11/05 08:35:26;;;;;;;19.90;11.57;;;;;;;-145.18;100.00;46674.06;5052718;28;20262;-71
2022/11/05 08:37:59;;;;;;;22.27;12.13;;;;;;;-145.18;100.00;46677.97;5052092;28;20270;-71
2022/11/05 08:40:25;;;;;;;18.43;12.23;;;;;;;-145.18;100.00;46674.06;5052164;28;20274;-71
2022/11/05 08:42:51;;;;;;;21.30;11.83;;;;;;;-145.18;100.00;46674.06;5051699;28;20821;-72
2022/11/05 08:45:17;;;;;;;22.53;11.60;;;;;;;-145.18;100.00;46677.97;5034591;28;20281;-71
2022/11/05 08:47:42;;;;;;;24.87;11.97;;;;;;;-145.18;100.00;46679.94;5052446;28;20310;-71
2022/11/05 08:50:08;;;;;;;18.43;10.33;;;;;;;-145.18;100.00;46677.97;5052057;28;20037;-71
2022/11/05 08:52:34;;;;;;;21.03;10.90;;;;;;;-145.18;100.00;46679.94;5052012;28;20041;-71
2022/11/05 08:54:59;;;;;;;19.80;11.03;;;;;;;-145.18;100.00;46683.84;5034399;28;20393;-71
2022/11/05 08:57:24;;;;;;;19.00;10.83;;;;;;;-145.18;100.00;46681.88;5033967;28;20041;-71
2022/11/05 08:59:50;;;;;;;17.60;10.80;;;;;;;-145.18;100.00;46683.84;5051907;28;20040;-71
2022/11/05 09:02:15;;;;;;;22.67;10.40;;;;;;;-145.18;100.00;46683.84;5051443;28;20073;-71
2022/11/05 09:04:40;;;;;;;18.83;8.73;;;;;;;-145.18;100.00;46683.84;5052052;28;20197;-71
2022/11/05 09:07:06;;;;;;;15.93;8.33;;;;;;;-145.18;100.00;46687.75;5051853;28;20114;-72
2022/11/05 09:09:32;;;;;;;33.60;10.53;;;;;;;-145.18;100.00;46691.66;5051834;28;20032;-71
2022/11/05 09:11:57;;;;;;;16.87;8.07;;;;;;;-145.18;100.00;46687.75;5051011;28;20041;-71
2022/11/05 09:14:25;;;;;;;18.00;8.60;;;;;;;-145.18;100.00;46689.69;5051615;28;20179;-71
2022/11/05 09:16:51;;;;;;;15.83;8.43;;;;;;;-145.18;100.00;46679.94;5049758;28;20028;-71
2022/11/05 09:19:16;;;;;;;16.83;8.77;;;;;;;-145.18;100.00;46672.13;5019289;28;20674;-71
2022/11/05 09:21:42;;;;;;;14.80;7.60;;;;;;;-145.18;100.00;46660.41;5050903;28;20120;-71
2022/11/05 09:24:07;;;;;;;15.53;7.90;;;;;;;-145.18;100.00;46635.00;5029900;28;20064;-71
2022/11/05 09:26:32;;;;;;;15.23;7.97;;;;;;;-145.18;100.00;46592.03;5045046;28;20060;-71
2022/11/05 09:28:58;;;;;;;18.03;7.37;;;;;;;-145.18;100.00;46574.44;5034979;28;20048;-71
2022/11/05 09:31:23;;;;;;;13.33;8.27;;;;;;;-145.18;100.00;46574.44;5031647;28;20065;-71
2022/11/05 09:33:48;;;;;;;10.70;6.90;;;;;;;-145.18;100.00;46582.25;5050419;28;20468;-71
2022/11/05 09:36:14;;;;;;;17.77;7.87;;;;;;;-145.18;100.00;46580.31;5050854;28;20120;-71
2022/11/05 09:38:39;;;;;;;16.37;8.00;;;;;;;-145.18;100.00;46595.94;5050978;28;20037;-71
2022/11/05 09:41:26;;;;;;;13.50;7.37;;;;;;;-145.18;100.00;46603.75;5051057;28;20474;-71
2022/11/05 09:44:21;;;;;;;18.47;7.53;;;;;;;-145.18;100.00;46603.75;5050142;28;20115;-71
2022/11/05 09:46:50;;;;;;;14.37;6.97;;;;;;;-145.18;100.00;46601.78;5046509;28;20040;-71
2022/11/05 09:49:40;;;;;;;13.03;7.10;;;;;;;-145.18;100.00;46607.66;5050785;28;20278;-71
2022/11/05 09:52:12;;;;;;;15.53;7.47;;;;;;;-145.18;100.00;46607.66;5051200;28;20924;-71
2022/11/05 09:54:39;;;;;;;15.57;7.90;;;;;;;-145.18;100.00;46597.88;5050537;28;20285;-71
2022/11/05 09:57:06;;;;;;;15.00;6.57;;;;;;;-145.18;100.00;46607.66;5051037;28;20041;-71
2022/11/05 09:59:45;;;;;;;10.83;6.17;;;;;;;-145.18;100.00;46599.84;5050972;28;20359;-71
2022/11/05 10:02:23;;;;;;;12.63;7.30;;;;;;;-145.18;100.00;46599.84;5050707;28;20028;-72
2022/11/05 10:04:52;;;;;;;9.43;5.63;;;;;;;-145.18;100.00;46592.03;5051002;28;20071;-71
2022/11/05 10:07:22;;;;;;;20.80;7.50;;;;;;;-145.18;100.00;46590.06;5050898;28;20266;-71
2022/11/05 10:09:55;;;;;;;13.37;6.77;;;;;;;-145.18;100.00;46593.97;5050921;28;20557;-71
2022/11/05 10:12:45;;;;;;;10.90;6.53;;;;;;;-145.18;100.00;46584.22;5050621;28;20746;-71
2022/11/05 10:15:29;;;;;;;12.17;6.90;;;;;;;-145.18;100.00;46576.41;5050661;28;20262;-71
2022/11/05 10:18:02;;;;;;;12.07;7.17;;;;;;;-145.18;100.00;46580.31;5050653;28;20268;-71
2022/11/05 10:20:38;;;;;;;16.63;7.87;;;;;;;-145.18;100.00;46578.34;5050833;28;20349;-71
2022/11/05 10:23:18;;;;;;;13.10;6.00;;;;;;;-145.18;100.00;46578.34;5048970;28;20274;-71
2022/11/05 10:25:46;;;;;;;13.73;6.23;;;;;;;-145.18;100.00;46568.59;5050243;28;20294;-71
2022/11/05 10:28:20;;;;;;;13.60;6.80;;;;;;;-145.18;100.00;46574.44;5049957;28;20265;-71
2022/11/05 10:30:49;;;;;;;15.83;7.10;;;;;;;-145.18;100.00;46572.50;5050436;28;20388;-71
2022/11/05 10:33:24;;;;;;;13.73;6.73;;;;;;;-145.18;100.00;46578.34;5049387;28;20811;-71
2022/11/05 10:35:53;;;;;;;19.13;7.77;;;;;;;-145.18;100.00;46572.50;5049679;28;20032;-71
2022/11/05 10:38:19;;;;;;;13.33;7.03;;;;;;;-145.18;100.00;46578.34;5050180;28;20037;-71
2022/11/05 10:41:00;;;;;;;14.90;7.20;;;;;;;-145.18;100.00;46580.31;5050457;28;20496;-71
2022/11/05 10:43:40;;;;;;;18.83;7.97;;;;;;;-145.18;100.00;46578.34;5050347;28;20043;-71
2022/11/05 10:46:27;;;;;;;15.60;7.80;;;;;;;-145.18;100.00;46580.31;5050407;28;20144;-71
2022/11/05 10:49:43;;;;;;;18.50;7.87;;;;;;;-145.18;100.00;46578.34;5049905;28;20037;-71
2022/11/05 10:52:21;;;;;;;16.77;8.90;;;;;;;-145.18;100.00;46584.22;4969029;28;20460;-71
2022/11/05 10:54:49;;;;;;;17.67;8.50;;;;;;;-145.18;100.00;46582.25;5048646;28;20377;-71
2022/11/05 10:57:32;;;;;;;16.23;8.93;;;;;;;-145.18;100.00;46582.25;5050025;28;20064;-71
2022/11/05 11:00:20;;;;;;;19.60;10.43;;;;;;;-145.18;100.00;46588.13;5050027;28;20037;-71
2022/11/05 11:02:49;;;;;;;17.20;9.43;;;;;;;-145.18;100.00;46588.13;5049613;28;20041;-71
2022/11/05 11:05:34;;;;;;;19.50;9.57;;;;;;;-145.18;100.00;46584.22;5049040;28;20095;-71
2022/11/05 11:08:22;;;;;;;17.53;9.10;;;;;;;-145.18;100.00;46601.78;5049688;28;20032;-71
2022/11/05 11:10:53;;;;;;;13.33;8.50;;;;;;;-145.18;100.00;46601.78;5049980;28;20061;-71
2022/11/05 11:13:23;;;;;;;12.77;7.23;;;;;;;-145.18;100.00;46617.41;5049706;28;20087;-71
2022/11/05 11:15:50;;;;;;;12.33;6.20;;;;;;;-145.18;100.00;46625.22;5049717;28;20025;-71
2022/11/05 11:18:40;;;;;;;15.60;6.50;;;;;;;-145.18;100.00;46629.13;5047717;28;20037;-71
2022/11/05 11:21:18;;;;;;;14.13;5.80;;;;;;;-145.18;100.00;46635.00;5040148;28;20534;-71
2022/11/05 11:24:03;;;;;;;11.83;5.43;;;;;;;-145.18;100.00;46638.91;5049709;28;20032;-72
2022/11/05 11:26:32;;;;;;;11.33;5.53;;;;;;;-145.18;100.00;46638.91;5049468;28;20050;-71
2022/11/05 11:29:05;;;;;;;11.40;5.47;;;;;;;-145.18;100.00;46658.44;5049407;28;20080;-71
2022/11/05 11:31:32;;;;;;;11.83;5.40;;;;;;;-145.18;100.00;46668.22;5050040;28;20029;-71
2022/11/05 11:34:04;;;;;;;7.70;4.90;;;;;;;-145.18;100.00;46660.41;5049198;28;20044;-70
2022/11/05 11:36:44;;;;;;;11.80;5.33;;;;;;;-145.18;100.00;46681.88;5048288;28;20145;-71
2022/11/05 11:39:16;;;;;;;10.00;4.77;;;;;;;-145.18;100.00;46687.75;5043726;28;20033;-71
2022/11/05 11:41:44;;;;;;;11.33;5.73;;;;;;;-145.18;100.00;46695.56;5058303;28;20028;-71
2022/11/05 11:44:25;;;;;;;9.07;5.50;;;;;;;-145.18;100.00;46683.84;5052658;28;20033;-71
2022/11/05 11:46:54;;;;;;;7.73;4.83;;;;;;;-145.18;100.00;46697.50;5039519;28;20036;-70
2022/11/05 11:49:29;;;;;;;17.07;5.30;;;;;;;-145.18;100.00;46734.63;5053881;28;20029;-70
2022/11/05 11:52:02;;;;;;;13.55;5.43;;;;;;;-145.18;100.00;46724.84;5042616;28;20106;-70
2022/11/05 11:54:29;;;;;;;12.63;5.23;;;;;;;-145.18;100.00;46711.19;5054995;28;20062;-70
2022/11/05 11:56:55;;;;;;;13.80;5.53;;;;;;;-145.18;100.00;46738.53;5043363;28;20025;-70
2022/11/05 11:59:26;;;;;;;9.20;5.93;;;;;;;-145.18;100.00;46695.56;5052111;28;20032;-70
2022/11/05 12:02:16;;;;;;;11.27;6.63;;;;;;;-145.18;100.00;46679.94;5052888;28;20124;-70